aviador You're here:

KMCW Decoded Metar

MASON CITY in IA, USA
Report Time2017-12-15 18:53:00
UTC Time2017-12-15 19:42:20
Flight Rules vfr VFR
Wind270° at 14 kt
W.Decomp.*RWY 30: 11.5 kt HW 8 kt LCW
RWY 18: 1.2 kt HW 13.9 kt RCW
W.Rank270° ranks 15
Current wind is above 270° avg. (9.2)
Visibility9999 m
Phenomena:N/A
Clouds:Scattered 020 Hf
Broken 050 Hf
Expected CloudBase > 2,000 ft AGL from Temp-Dew spread
Ceiling5,000 ft
Temp03°C (ISA -10)
Dew Point-2°C (70% RH)
AAT-4.3°C
QNH1011 hPa
Density Alt194 ft
Elevation1,211 ft
Report Wrong Elevation
Raw Report
METAR KMCW 151853Z AUTO 27014KT 10SM SCT020 BKN050 03/M02 A2985 RMK
AO2 SLP115 T00281022=

Extra information for KMCW:More info

Metar Taf Metar & Taf Last 4 Metars F.Rules Stats Wind Profile Meteogram Temp Stats Airport Information Weather charts Add Link Nearby VenuesMetar ALERT Operation Metar Decoded Social comments

AIRNAV info for KMCW